Latest Coastal Weather Observations for Truscott

IDD60701

Issued at 4:05 am CST Tuesday 2 September 2014 (issued every 10 minutes, with the page automatically refreshed every 10 minutes)

About coastal observations | Map of coastal stations | Coastal observations for NT | Marine services | Other Formats
Station Details ID: 001020 Name: TRUSCOTT Lat: -14.09 Lon: 126.39 Height: 51.0 m
Data from the previous 72 hours. | See also: Recent months at Truscott
Date/Time
CST
Temp

°C
Wind Pressure Rain
since 9am
mm
Weather Cloud Vis
km
Sea
Height
m
Swell
Dir
 
Speed
knots
Gust
knots
hPa Trend Height
m
Period
s
Dir
02/04:00am 19.1 SW 5 6 1013.8 - 0.0 - - 10 - - - -
02/03:30am 17.8 SSW 4 5 1013.9 - 0.0 - - 10 - - - -
02/03:00am 17.6 S 3 4 1014.2 - 0.0 - - 10 - - - -
02/02:30am 17.6 CALM 0 0 1014.4 - 0.0 - - 10 - - - -
02/02:00am 17.6 CALM 0 0 1014.6 - 0.0 - - 10 - - - -
02/01:30am 18.3 SSW 1 3 1014.1 - 0.0 - - 10 - - - -
02/01:00am 18.6 CALM 0 3 1014.7 - 0.0 - - 10 - - - -
02/12:30am 19.0 CALM 0 0 1014.7 - 0.0 - - 10 - - - -
02/12:00am 19.2 CALM 0 0 1014.7 - 0.0 - - 10 - - - -
 
Date/Time
CST
Temp

°C
Wind Pressure Rain
since 9am
mm
Weather Cloud Vis
km
Sea
Height
m
Swell
Dir
 
Speed
knots
Gust
knots
hPa Trend Height
m
Period
s
Dir
01/11:30pm 19.6 CALM 0 0 1014.7 - 0.0 - - 10 - - - -
01/11:00pm 19.9 CALM 0 0 1015.0 - 0.0 - - 10 - - - -
01/10:30pm 20.4 CALM 0 0 1014.4 - 0.0 - - 10 - - - -
01/10:00pm 20.4 CALM 0 0 1014.9 - 0.0 - - 10 - - - -
01/09:30pm 20.9 CALM 0 0 1014.7 - 0.0 - - 10 - - - -
01/09:00pm 21.4 CALM 0 0 1014.3 - 0.0 - - 10 - - - -
01/08:30pm 22.2 N 3 4 1014.0 - 0.0 - - 10 - - - -
01/08:00pm 22.7 N 3 5 1013.6 - 0.0 - - 10 - - - -
01/07:30pm 23.2 N 4 6 1012.8 - 0.0 - - 10 - - - -
01/07:00pm 23.9 N 7 11 1012.9 - 0.0 - - 10 - - - -
01/06:30pm 25.0 N 7 9 1012.6 - 0.0 - - 10 - - - -
01/06:00pm 26.2 N 8 13 1012.2 - 0.0 - - 10 - - - -
01/05:30pm 27.3 N 8 13 1011.9 - 0.0 - - 10 - - - -
01/05:00pm 27.6 N 10 16 1011.8 - 0.0 - - 10 - - - -
01/04:30pm 28.3 N 10 16 1011.3 - 0.0 - - 10 - - - -
01/04:00pm 29.5 N 10 15 1011.8 - 0.0 - - 10 - - - -
01/03:30pm 30.0 N 11 15 1011.8 - 0.0 - - 10 - - - -
01/03:00pm 30.0 N 13 19 1012.0 - 0.0 - - 10 - - - -
01/02:30pm 31.9 NNE 9 12 1012.3 - 0.0 - - 10 - - - -
01/02:00pm 33.3 E 9 15 1012.7 - 0.0 - - 10 - - - -
01/01:30pm 33.3 E 6 12 1012.7 - 0.0 - - 10 - - - -
01/01:00pm 32.5 ESE 9 13 1013.5 - 0.0 - - 10 - - - -
01/12:30pm 32.1 SE 8 14 1013.9 - 0.0 - - 10 - - - -
01/12:00pm 31.8 ESE 8 13 1014.6 - 0.0 - - 10 - - - -
01/11:30am 31.5 E 6 9 1014.9 - 0.0 - - 10 - - - -
01/11:00am 30.1 SSE 4 8 1015.3 - 0.0 - - 10 - - - -
01/10:30am 28.8 S 6 8 1015.2 - 0.0 - - 10 - - - -
01/10:00am 27.3 SSW 8 10 1015.7 - 0.0 - - 10 - - - -
01/09:30am 25.7 SSW 7 10 1015.6 - 0.0 - - 10 - - - -
01/09:00am 24.5 S 6 8 1015.5 - 0.0 - - 10 - - - -
01/08:30am 22.9 SSW 6 8 1015.2 - 0.0 - - 10 - - - -
01/08:00am 21.2 SSW 6 7 1014.8 - 0.0 - - 10 - - - -
01/07:30am 17.5 SW 4 5 1014.1 - 0.0 - - 10 - - - -
01/07:00am 17.7 SSW 4 6 1014.3 - 0.0 - - 10 - - - -
01/06:30am 19.2 SW 4 5 1014.0 - 0.0 - - 10 - - - -
01/06:00am 20.1 SSW 6 7 1013.7 - 0.0 - - 10 - - - -
01/05:30am 19.9 SSW 7 8 1013.6 - 0.0 - - 10 - - - -
01/05:00am 19.5 SW 5 6 1013.5 - 0.0 - - 10 - - - -
01/04:30am 19.7 SSW 6 7 1012.9 - 0.0 - - 10 - - - -
01/04:00am 20.0 SW 6 8 1013.3 - 0.0 - - 10 - - - -
01/03:30am 19.8 SSW 6 9 1013.2 - 0.0 - - 10 - - - -
01/03:00am 19.7 SW 4 5 1013.2 - 0.0 - - 10 - - - -
01/02:30am 19.9 SW 5 6 1013.2 - 0.0 - - 10 - - - -
01/02:00am 18.2 SW 3 5 1013.1 - 0.0 - - 10 - - - -
01/01:30am 18.5 SSE 1 3 1012.7 - 0.0 - - 10 - - - -
01/01:00am 18.4 CALM 0 0 1013.3 - 0.0 - - 10 - - - -
01/12:30am 18.0 CALM 0 0 1013.5 - 0.0 - - 10 - - - -
01/12:00am 18.1 CALM 0 0 1013.5 - 0.0 - - 10 - - - -
 
Date/Time
CST
Temp

°C
Wind Pressure Rain
since 9am
mm
Weather Cloud Vis
km
Sea
Height
m
Swell
Dir
 
Speed
knots
Gust
knots
hPa Trend Height
m
Period
s
Dir
31/11:30pm 18.3 CALM 0 0 1013.3 - 0.0 - - 10 - - - -
31/11:00pm 18.9 CALM 0 0 1013.3 - 0.0 - - 10 - - - -
31/10:30pm 19.9 CALM 0 0 1012.8 - 0.0 - - 10 - - - -
31/10:00pm 21.3 E 4 5 1013.2 - 0.0 - - 10 - - - -
31/09:30pm 22.3 E 4 5 1013.0 - 0.0 - - 10 - - - -
31/09:00pm 23.8 ENE 4 6 1012.7 - 0.0 - - 10 - - - -
31/08:30pm 25.0 NE 6 8 1012.4 - 0.0 - - 10 - - - -
31/08:00pm 25.5 NE 6 10 1012.0 - 0.0 - - 10 - - - -
31/07:30pm 25.6 NE 5 8 1011.1 - 0.0 - - 10 - - - -
31/07:00pm 26.0 NNE 7 10 1011.4 - 0.0 - - 10 - - - -
31/06:30pm 27.2 NNE 8 14 1011.2 - 0.0 - - 10 - - - -
31/06:00pm 29.3 NNE 8 11 1010.9 - 0.0 - - 10 - - - -
31/05:30pm 30.5 NE 10 15 1010.8 - 0.0 - - 10 - - - -
31/05:00pm 31.4 NE 9 15 1010.8 - 0.0 - - 10 - - - -
31/04:30pm 32.0 ENE 9 16 1010.5 - 0.0 - - 10 - - - -
31/04:00pm 32.0 ENE 10 14 1011.1 - 0.0 - - 10 - - - -
31/03:30pm 32.4 ENE 8 13 1011.3 - 0.0 - - 10 - - - -
31/03:00pm 32.2 E 10 15 1011.7 - 0.0 - - 10 - - - -
31/02:30pm 31.6 ENE 9 16 1012.0 - 0.0 - - 10 - - - -
31/02:00pm 32.0 ENE 9 13 1012.5 - 0.0 - - 10 - - - -
31/01:30pm 31.4 E 9 15 1012.4 - 0.0 - - 10 - - - -
31/01:00pm 31.2 ENE 9 14 1013.4 - 0.0 - - 10 - - - -
31/12:30pm 30.3 E 10 16 1013.9 - 0.0 - - 10 - - - -
31/12:00pm 30.0 E 10 15 1014.4 - 0.0 - - 10 - - - -
31/11:30am 30.1 E 10 17 1014.7 - 0.0 - - 10 - - - -
31/11:00am 29.4 ESE 11 16 1014.9 - 0.0 - - 10 - - - -
31/10:30am 29.0 ESE 8 13 1014.7 - 0.0 - - 10 - - - -
31/10:00am 27.8 ESE 9 14 1015.2 - 0.0 - - 10 - - - -
31/09:30am 26.8 ESE 6 10 1015.0 - 0.0 - - 10 - - - -
31/09:00am 25.2 SSE 5 7 1014.9 - 0.0 - - 10 - - - -
31/08:30am 23.2 SSE 5 7 1014.7 - 0.0 - - 10 - - - -
31/08:00am 20.0 S 5 6 1014.4 - 0.0 - - 10 - - - -
31/07:30am 18.2 S 4 5 1013.6 - 0.0 - - 10 - - - -
31/07:00am 20.5 SW 8 11 1013.6 - 0.0 - - 10 - - - -
31/06:30am 20.0 SW 6 8 1013.5 - 0.0 - - 10 - - - -
31/06:00am 20.1 SW 7 9 1013.2 - 0.0 - - 10 - - - -
31/05:30am 21.1 SSW 8 11 1013.2 - 0.0 - - 10 - - - -
31/05:00am 21.4 SSW 9 12 1013.2 - 0.0 - - 10 - - - -
31/04:30am 20.8 SSW 8 11 1012.7 - 0.0 - - 10 - - - -
31/04:00am 20.0 SW 6 8 1013.1 - 0.0 - - 10 - - - -
31/03:30am 20.5 SSW 7 9 1013.0 - 0.0 - - 10 - - - -
31/03:00am 20.5 SSW 6 8 1013.0 - 0.0 - - 10 - - - -
31/02:30am 20.8 SSW 8 10 1013.2 - 0.0 - - 10 - - - -
31/02:00am 20.4 SSW 6 7 1013.4 - 0.0 - - 10 - - - -
31/01:30am 20.7 SSW 5 7 1013.2 - 0.0 - - 10 - - - -
31/01:00am 18.5 SSW 4 5 1013.8 - 0.0 - - 10 - - - -
31/12:30am 19.8 SW 3 5 1014.0 - 0.0 - - 10 - - - -
31/12:00am 19.5 SE 2 7 1014.0 - 0.0 - - 10 - - - -
 
Date/Time
CST
Temp

°C
Wind Pressure Rain
since 9am
mm
Weather Cloud Vis
km
Sea
Height
m
Swell
Dir
 
Speed
knots
Gust
knots
hPa Trend Height
m
Period
s
Dir
30/11:30pm 19.3 E 4 5 1013.9 - 0.0 - - 10 - - - -
30/11:00pm 20.7 E 4 6 1014.1 - 0.0 - - 10 - - - -
30/10:30pm 21.5 E 4 6 1013.7 - 0.0 - - 10 - - - -
30/10:00pm 22.2 E 6 7 1014.1 - 0.0 - - 10 - - - -
30/09:30pm 22.0 E 5 6 1014.0 - 0.0 - - 10 - - - -
30/09:00pm 22.7 ENE 5 7 1013.7 - 0.0 - - 10 - - - -
30/08:30pm 23.0 ENE 4 6 1013.3 - 0.0 - - 10 - - - -
30/08:00pm 23.9 NE 3 5 1012.9 - 0.0 - - 10 - - - -
30/07:30pm 25.3 NNE 5 8 1012.0 - 0.0 - - 10 - - - -
30/07:00pm 26.7 NNE 6 11 1012.2 - 0.0 - - 10 - - - -
30/06:30pm 28.1 NNE 6 9 1012.0 - 0.0 - - 10 - - - -
30/06:00pm 29.1 NNE 7 11 1011.8 - 0.0 - - 10 - - - -
30/05:30pm 29.4 NNE 10 15 1011.5 - 0.0 - - 10 - - - -
30/05:00pm 30.1 N 10 15 1011.3 - 0.0 - - 10 - - - -
30/04:30pm 30.5 N 11 15 1010.7 - 0.0 - - 10 - - - -
30/04:00pm 30.1 N 10 16 1011.4 - 0.0 - - 10 - - - -
30/03:30pm 32.3 ENE 7 12 1011.6 - 0.0 - - 10 - - - -
30/03:00pm 31.8 E 10 16 1012.1 - 0.0 - - 10 - - - -
30/02:30pm 31.6 ENE 8 13 1012.4 - 0.0 - - 10 - - - -
30/02:00pm 32.0 ENE 9 14 1012.9 - 0.0 - - 10 - - - -
30/01:30pm 31.6 ENE 11 17 1012.9 - 0.0 - - 10 - - - -
30/01:00pm 31.7 E 8 14 1013.9 - 0.0 - - 10 - - - -
30/12:30pm 31.1 E 10 16 1014.4 - 0.0 - - 10 - - - -
30/12:00pm 30.2 E 11 16 1014.8 - 0.0 - - 10 - - - -
30/11:30am 30.5 ESE 9 15 1015.3 - 0.0 - - 10 - - - -
30/11:00am 29.5 ESE 11 17 1015.7 - 0.0 - - 10 - - - -
30/10:30am 29.9 ESE 7 13 1015.4 - 0.0 - - 10 - - - -
30/10:00am 28.7 SE 6 9 1016.0 - 0.0 - - 10 - - - -
30/09:30am 26.4 SSE 5 8 1016.0 - 0.0 - - 10 - - - -
30/09:00am 23.7 SSW 6 8 1015.8 - 0.0 - - 10 - - - -
30/08:30am 20.5 SSW 5 7 1015.6 - 0.0 - - 10 - - - -
30/08:00am 18.9 SSW 5 6 1015.3 - 0.0 - - 10 - - - -
30/07:30am 17.9 SSW 6 7 1014.4 - 0.0 - - 10 - - - -
30/07:00am 18.9 SSW 6 7 1014.6 - 0.0 - - 10 - - - -
30/06:30am 19.8 SSW 7 9 1014.5 - 0.0 - - 10 - - - -
30/06:00am 19.3 SSW 7 8 1014.3 - 0.0 - - 10 - - - -

Other Formats:

Comma delimited format used in spreadsheet applications
http://www.bom.gov.au/fwo/IDD60701/IDD60701.95101.axf

JavaScript Object Notation format (JSON) in row-major order
http://www.bom.gov.au/fwo/IDD60701/IDD60701.95101.json